sensor_id;sensor_type;location;lat;lon;timestamp;P1;durP1;ratioP1;P2;durP2;ratioP2
29196;SDS011;62796;42.654;23.316;2023-02-04T00:00:58;12.88;;;8.38;;
29196;SDS011;62796;42.654;23.316;2023-02-04T00:03:24;12.27;;;7.55;;
29196;SDS011;62796;42.654;23.316;2023-02-04T00:05:49;14.45;;;7.70;;
29196;SDS011;62796;42.654;23.316;2023-02-04T00:08:15;12.65;;;8.15;;
29196;SDS011;62796;42.654;23.316;2023-02-04T00:10:40;16.15;;;9.35;;
29196;SDS011;62796;42.654;23.316;2023-02-04T00:13:05;14.90;;;8.32;;
29196;SDS011;62796;42.654;23.316;2023-02-04T00:15:31;13.50;;;7.97;;
29196;SDS011;62796;42.654;23.316;2023-02-04T00:17:57;10.85;;;7.90;;
29196;SDS011;62796;42.654;23.316;2023-02-04T00:20:23;15.40;;;8.30;;
29196;SDS011;62796;42.654;23.316;2023-02-04T00:22:48;16.88;;;9.18;;
29196;SDS011;62796;42.654;23.316;2023-02-04T00:25:15;14.52;;;7.80;;
29196;SDS011;62796;42.654;23.316;2023-02-04T00:27:41;12.20;;;8.20;;
29196;SDS011;62796;42.654;23.316;2023-02-04T00:30:06;14.40;;;9.55;;
29196;SDS011;62796;42.654;23.316;2023-02-04T00:32:32;14.23;;;8.55;;
29196;SDS011;62796;42.654;23.316;2023-02-04T00:34:58;15.50;;;8.40;;
29196;SDS011;62796;42.654;23.316;2023-02-04T00:37:23;16.63;;;9.43;;
29196;SDS011;62796;42.654;23.316;2023-02-04T00:39:49;14.27;;;8.45;;
29196;SDS011;62796;42.654;23.316;2023-02-04T00:42:14;12.43;;;7.95;;
29196;SDS011;62796;42.654;23.316;2023-02-04T00:44:40;10.35;;;7.43;;
29196;SDS011;62796;42.654;23.316;2023-02-04T00:47:05;12.43;;;7.80;;
29196;SDS011;62796;42.654;23.316;2023-02-04T00:49:32;11.02;;;7.15;;
29196;SDS011;62796;42.654;23.316;2023-02-04T00:51:58;16.92;;;8.65;;
29196;SDS011;62796;42.654;23.316;2023-02-04T00:54:23;23.30;;;11.73;;
29196;SDS011;62796;42.654;23.316;2023-02-04T00:56:49;14.23;;;8.88;;
29196;SDS011;62796;42.654;23.316;2023-02-04T00:59:14;15.20;;;9.38;;
29196;SDS011;62796;42.654;23.316;2023-02-04T01:01:40;16.25;;;9.60;;
29196;SDS011;62796;42.654;23.316;2023-02-04T01:04:06;14.75;;;9.02;;
29196;SDS011;62796;42.654;23.316;2023-02-04T01:06:31;12.32;;;8.45;;
29196;SDS011;62796;42.654;23.316;2023-02-04T01:08:57;14.35;;;8.68;;
29196;SDS011;62796;42.654;23.316;2023-02-04T01:11:22;16.77;;;9.50;;
29196;SDS011;62796;42.654;23.316;2023-02-04T01:13:48;15.75;;;9.57;;
29196;SDS011;62796;42.654;23.316;2023-02-04T01:16:13;16.52;;;10.45;;
29196;SDS011;62796;42.654;23.316;2023-02-04T01:18:39;17.75;;;9.93;;
29196;SDS011;62796;42.654;23.316;2023-02-04T01:21:04;14.20;;;9.90;;
29196;SDS011;62796;42.654;23.316;2023-02-04T01:23:30;17.60;;;10.68;;
29196;SDS011;62796;42.654;23.316;2023-02-04T01:25:55;16.27;;;10.20;;
29196;SDS011;62796;42.654;23.316;2023-02-04T01:28:21;19.60;;;10.80;;
29196;SDS011;62796;42.654;23.316;2023-02-04T01:30:46;19.88;;;11.05;;
29196;SDS011;62796;42.654;23.316;2023-02-04T01:33:12;19.27;;;11.68;;
29196;SDS011;62796;42.654;23.316;2023-02-04T01:35:37;18.80;;;11.00;;
29196;SDS011;62796;42.654;23.316;2023-02-04T01:38:03;20.50;;;12.05;;
29196;SDS011;62796;42.654;23.316;2023-02-04T01:40:28;18.60;;;11.55;;
29196;SDS011;62796;42.654;23.316;2023-02-04T01:42:54;15.85;;;10.48;;
29196;SDS011;62796;42.654;23.316;2023-02-04T01:45:19;17.15;;;10.65;;
29196;SDS011;62796;42.654;23.316;2023-02-04T01:47:44;18.48;;;11.50;;
29196;SDS011;62796;42.654;23.316;2023-02-04T01:50:14;15.93;;;9.93;;
29196;SDS011;62796;42.654;23.316;2023-02-04T01:52:41;15.68;;;10.38;;
29196;SDS011;62796;42.654;23.316;2023-02-04T01:55:19;16.90;;;10.55;;
29196;SDS011;62796;42.654;23.316;2023-02-04T01:57:48;18.15;;;10.95;;
29196;SDS011;62796;42.654;23.316;2023-02-04T02:00:18;15.93;;;10.43;;
29196;SDS011;62796;42.654;23.316;2023-02-04T02:02:49;17.63;;;11.55;;
29196;SDS011;62796;42.654;23.316;2023-02-04T02:06:02;16.88;;;10.50;;
29196;SDS011;62796;42.654;23.316;2023-02-04T02:08:04;18.23;;;10.30;;
29196;SDS011;62796;42.654;23.316;2023-02-04T02:10:31;33.63;;;17.20;;
29196;SDS011;62796;42.654;23.316;2023-02-04T02:12:59;21.38;;;11.30;;
29196;SDS011;62796;42.654;23.316;2023-02-04T02:15:24;20.77;;;11.43;;
29196;SDS011;62796;42.654;23.316;2023-02-04T02:17:51;34.25;;;16.23;;
29196;SDS011;62796;42.654;23.316;2023-02-04T02:20:18;17.48;;;11.90;;
29196;SDS011;62796;42.654;23.316;2023-02-04T02:25:46;17.27;;;11.02;;
29196;SDS011;62796;42.654;23.316;2023-02-04T02:28:20;21.27;;;11.30;;
29196;SDS011;62796;42.654;23.316;2023-02-04T02:30:47;16.48;;;9.63;;
29196;SDS011;62796;42.654;23.316;2023-02-04T02:33:16;19.30;;;11.10;;
29196;SDS011;62796;42.654;23.316;2023-02-04T02:35:44;18.33;;;10.77;;
29196;SDS011;62796;42.654;23.316;2023-02-04T02:38:12;18.42;;;11.52;;
29196;SDS011;62796;42.654;23.316;2023-02-04T02:40:38;17.83;;;11.35;;
29196;SDS011;62796;42.654;23.316;2023-02-04T02:43:04;17.85;;;11.38;;
29196;SDS011;62796;42.654;23.316;2023-02-04T02:45:30;17.40;;;10.48;;
29196;SDS011;62796;42.654;23.316;2023-02-04T02:47:57;21.33;;;13.18;;
29196;SDS011;62796;42.654;23.316;2023-02-04T02:50:25;14.68;;;9.65;;
29196;SDS011;62796;42.654;23.316;2023-02-04T02:52:53;18.85;;;10.85;;
29196;SDS011;62796;42.654;23.316;2023-02-04T02:55:19;19.40;;;11.98;;
29196;SDS011;62796;42.654;23.316;2023-02-04T02:57:47;32.92;;;15.52;;
29196;SDS011;62796;42.654;23.316;2023-02-04T03:00:21;18.85;;;11.00;;
29196;SDS011;62796;42.654;23.316;2023-02-04T03:05:29;17.63;;;9.52;;
29196;SDS011;62796;42.654;23.316;2023-02-04T03:07:58;22.83;;;11.75;;
29196;SDS011;62796;42.654;23.316;2023-02-04T03:10:23;23.25;;;12.45;;
29196;SDS011;62796;42.654;23.316;2023-02-04T03:12:49;29.05;;;15.25;;
29196;SDS011;62796;42.654;23.316;2023-02-04T03:15:14;25.45;;;14.77;;
29196;SDS011;62796;42.654;23.316;2023-02-04T03:17:40;25.73;;;14.40;;
29196;SDS011;62796;42.654;23.316;2023-02-04T03:20:07;20.83;;;12.20;;
29196;SDS011;62796;42.654;23.316;2023-02-04T03:22:33;18.52;;;11.40;;
29196;SDS011;62796;42.654;23.316;2023-02-04T03:24:59;18.70;;;10.85;;
29196;SDS011;62796;42.654;23.316;2023-02-04T03:27:25;20.05;;;9.27;;
29196;SDS011;62796;42.654;23.316;2023-02-04T03:29:50;17.38;;;10.15;;
29196;SDS011;62796;42.654;23.316;2023-02-04T03:32:16;16.67;;;10.43;;
29196;SDS011;62796;42.654;23.316;2023-02-04T03:34:41;14.98;;;10.00;;
29196;SDS011;62796;42.654;23.316;2023-02-04T03:37:06;20.45;;;11.25;;
29196;SDS011;62796;42.654;23.316;2023-02-04T03:39:32;19.25;;;10.70;;
29196;SDS011;62796;42.654;23.316;2023-02-04T03:41:58;20.05;;;11.35;;
29196;SDS011;62796;42.654;23.316;2023-02-04T03:44:23;17.98;;;9.98;;
29196;SDS011;62796;42.654;23.316;2023-02-04T03:46:51;15.85;;;9.98;;
29196;SDS011;62796;42.654;23.316;2023-02-04T03:49:19;13.82;;;9.15;;
29196;SDS011;62796;42.654;23.316;2023-02-04T03:51:45;16.30;;;9.50;;
29196;SDS011;62796;42.654;23.316;2023-02-04T03:54:10;15.40;;;8.25;;
29196;SDS011;62796;42.654;23.316;2023-02-04T03:56:36;12.40;;;7.43;;
29196;SDS011;62796;42.654;23.316;2023-02-04T03:59:01;15.05;;;8.45;;
29196;SDS011;62796;42.654;23.316;2023-02-04T04:01:27;14.88;;;9.48;;
29196;SDS011;62796;42.654;23.316;2023-02-04T04:03:52;15.40;;;8.68;;
29196;SDS011;62796;42.654;23.316;2023-02-04T04:06:17;14.50;;;8.95;;
29196;SDS011;62796;42.654;23.316;2023-02-04T04:08:43;12.55;;;6.70;;
29196;SDS011;62796;42.654;23.316;2023-02-04T04:11:08;12.85;;;7.90;;
29196;SDS011;62796;42.654;23.316;2023-02-04T04:13:33;14.82;;;8.90;;
29196;SDS011;62796;42.654;23.316;2023-02-04T04:15:59;19.42;;;9.70;;
29196;SDS011;62796;42.654;23.316;2023-02-04T04:18:24;15.30;;;8.65;;
29196;SDS011;62796;42.654;23.316;2023-02-04T04:20:50;14.25;;;8.25;;
29196;SDS011;62796;42.654;23.316;2023-02-04T04:23:15;12.80;;;8.52;;
29196;SDS011;62796;42.654;23.316;2023-02-04T04:25:40;11.60;;;8.32;;
29196;SDS011;62796;42.654;23.316;2023-02-04T04:28:06;16.15;;;8.23;;
29196;SDS011;62796;42.654;23.316;2023-02-04T04:30:31;13.93;;;9.63;;
29196;SDS011;62796;42.654;23.316;2023-02-04T04:32:56;17.33;;;10.00;;
29196;SDS011;62796;42.654;23.316;2023-02-04T04:35:22;18.10;;;9.40;;
29196;SDS011;62796;42.654;23.316;2023-02-04T04:37:47;14.82;;;8.32;;
29196;SDS011;62796;42.654;23.316;2023-02-04T04:40:13;15.50;;;7.82;;
29196;SDS011;62796;42.654;23.316;2023-02-04T04:42:38;15.38;;;9.95;;
29196;SDS011;62796;42.654;23.316;2023-02-04T04:45:07;16.88;;;9.23;;
29196;SDS011;62796;42.654;23.316;2023-02-04T04:47:34;16.13;;;8.90;;
29196;SDS011;62796;42.654;23.316;2023-02-04T04:50:00;16.67;;;8.75;;
29196;SDS011;62796;42.654;23.316;2023-02-04T04:52:25;19.08;;;9.07;;
29196;SDS011;62796;42.654;23.316;2023-02-04T04:54:50;15.95;;;9.60;;
29196;SDS011;62796;42.654;23.316;2023-02-04T04:57:16;18.48;;;11.15;;
29196;SDS011;62796;42.654;23.316;2023-02-04T04:59:41;18.30;;;8.50;;
29196;SDS011;62796;42.654;23.316;2023-02-04T05:02:06;6.47;;;4.00;;
29196;SDS011;62796;42.654;23.316;2023-02-04T05:04:32;4.28;;;2.80;;
29196;SDS011;62796;42.654;23.316;2023-02-04T05:06:57;4.80;;;2.20;;
29196;SDS011;62796;42.654;23.316;2023-02-04T05:09:23;5.55;;;1.90;;
29196;SDS011;62796;42.654;23.316;2023-02-04T05:11:48;3.28;;;1.48;;
29196;SDS011;62796;42.654;23.316;2023-02-04T05:14:13;2.83;;;1.55;;
29196;SDS011;62796;42.654;23.316;2023-02-04T05:16:39;2.88;;;1.40;;
29196;SDS011;62796;42.654;23.316;2023-02-04T05:19:04;2.20;;;1.08;;
29196;SDS011;62796;42.654;23.316;2023-02-04T05:21:29;2.20;;;1.40;;
29196;SDS011;62796;42.654;23.316;2023-02-04T05:23:55;2.28;;;1.60;;
29196;SDS011;62796;42.654;23.316;2023-02-04T05:26:20;3.30;;;1.45;;
29196;SDS011;62796;42.654;23.316;2023-02-04T05:28:46;2.63;;;1.92;;
29196;SDS011;62796;42.654;23.316;2023-02-04T05:31:11;3.95;;;2.13;;
29196;SDS011;62796;42.654;23.316;2023-02-04T05:33:36;3.78;;;2.00;;
29196;SDS011;62796;42.654;23.316;2023-02-04T05:36:02;2.15;;;1.70;;
29196;SDS011;62796;42.654;23.316;2023-02-04T05:38:27;3.20;;;2.10;;
29196;SDS011;62796;42.654;23.316;2023-02-04T05:40:53;6.72;;;2.40;;
29196;SDS011;62796;42.654;23.316;2023-02-04T05:43:18;2.85;;;1.70;;
29196;SDS011;62796;42.654;23.316;2023-02-04T05:45:43;4.88;;;1.92;;
29196;SDS011;62796;42.654;23.316;2023-02-04T05:48:09;7.25;;;2.10;;
29196;SDS011;62796;42.654;23.316;2023-02-04T05:50:34;3.20;;;2.08;;
29196;SDS011;62796;42.654;23.316;2023-02-04T05:52:59;4.53;;;1.98;;
29196;SDS011;62796;42.654;23.316;2023-02-04T05:55:25;4.30;;;2.53;;
29196;SDS011;62796;42.654;23.316;2023-02-04T05:57:50;6.35;;;2.13;;
29196;SDS011;62796;42.654;23.316;2023-02-04T06:00:16;3.22;;;1.88;;
29196;SDS011;62796;42.654;23.316;2023-02-04T06:02:41;2.80;;;2.03;;
29196;SDS011;62796;42.654;23.316;2023-02-04T06:05:07;3.15;;;2.00;;
29196;SDS011;62796;42.654;23.316;2023-02-04T06:07:32;3.88;;;1.90;;
29196;SDS011;62796;42.654;23.316;2023-02-04T06:09:57;4.45;;;2.10;;
29196;SDS011;62796;42.654;23.316;2023-02-04T06:12:23;3.30;;;2.15;;
29196;SDS011;62796;42.654;23.316;2023-02-04T06:14:48;2.00;;;1.55;;
29196;SDS011;62796;42.654;23.316;2023-02-04T06:17:13;2.42;;;1.92;;
29196;SDS011;62796;42.654;23.316;2023-02-04T06:19:39;2.00;;;1.40;;
29196;SDS011;62796;42.654;23.316;2023-02-04T06:22:04;2.72;;;1.85;;
29196;SDS011;62796;42.654;23.316;2023-02-04T06:24:30;6.07;;;2.45;;
29196;SDS011;62796;42.654;23.316;2023-02-04T06:26:55;6.22;;;3.00;;
29196;SDS011;62796;42.654;23.316;2023-02-04T06:29:20;7.93;;;3.22;;
29196;SDS011;62796;42.654;23.316;2023-02-04T06:31:46;5.05;;;2.50;;
29196;SDS011;62796;42.654;23.316;2023-02-04T06:34:13;6.18;;;3.08;;
29196;SDS011;62796;42.654;23.316;2023-02-04T06:36:38;7.25;;;4.03;;
29196;SDS011;62796;42.654;23.316;2023-02-04T06:39:04;15.60;;;5.75;;
29196;SDS011;62796;42.654;23.316;2023-02-04T06:41:29;9.43;;;4.03;;
29196;SDS011;62796;42.654;23.316;2023-02-04T06:43:55;5.65;;;3.08;;
29196;SDS011;62796;42.654;23.316;2023-02-04T06:46:20;6.38;;;3.45;;
29196;SDS011;62796;42.654;23.316;2023-02-04T06:48:45;5.63;;;3.42;;
29196;SDS011;62796;42.654;23.316;2023-02-04T06:51:11;5.80;;;3.53;;
29196;SDS011;62796;42.654;23.316;2023-02-04T06:53:36;7.95;;;3.28;;
29196;SDS011;62796;42.654;23.316;2023-02-04T06:56:02;6.32;;;2.30;;
29196;SDS011;62796;42.654;23.316;2023-02-04T06:58:27;5.15;;;2.42;;
29196;SDS011;62796;42.654;23.316;2023-02-04T07:00:53;5.15;;;2.55;;
29196;SDS011;62796;42.654;23.316;2023-02-04T07:03:18;7.05;;;2.30;;
29196;SDS011;62796;42.654;23.316;2023-02-04T07:05:44;5.18;;;3.13;;
29196;SDS011;62796;42.654;23.316;2023-02-04T07:08:09;10.23;;;3.50;;
29196;SDS011;62796;42.654;23.316;2023-02-04T07:10:34;5.68;;;3.03;;
29196;SDS011;62796;42.654;23.316;2023-02-04T07:13:00;6.20;;;2.78;;
29196;SDS011;62796;42.654;23.316;2023-02-04T07:15:25;5.72;;;2.42;;
29196;SDS011;62796;42.654;23.316;2023-02-04T07:17:51;3.92;;;2.05;;
29196;SDS011;62796;42.654;23.316;2023-02-04T07:20:16;5.40;;;2.17;;
29196;SDS011;62796;42.654;23.316;2023-02-04T07:22:42;14.10;;;2.88;;
29196;SDS011;62796;42.654;23.316;2023-02-04T07:25:08;4.53;;;2.40;;
29196;SDS011;62796;42.654;23.316;2023-02-04T07:27:34;6.68;;;2.35;;
29196;SDS011;62796;42.654;23.316;2023-02-04T07:29:59;4.80;;;2.33;;
29196;SDS011;62796;42.654;23.316;2023-02-04T07:32:25;3.70;;;2.00;;
29196;SDS011;62796;42.654;23.316;2023-02-04T07:34:52;6.82;;;2.22;;
29196;SDS011;62796;42.654;23.316;2023-02-04T07:37:17;3.42;;;2.13;;
29196;SDS011;62796;42.654;23.316;2023-02-04T07:39:44;6.28;;;1.67;;
29196;SDS011;62796;42.654;23.316;2023-02-04T07:42:10;3.72;;;2.05;;
29196;SDS011;62796;42.654;23.316;2023-02-04T07:44:35;4.43;;;1.90;;
29196;SDS011;62796;42.654;23.316;2023-02-04T07:47:01;4.15;;;2.10;;
29196;SDS011;62796;42.654;23.316;2023-02-04T07:49:27;14.93;;;1.98;;
29196;SDS011;62796;42.654;23.316;2023-02-04T07:51:53;7.55;;;2.10;;
29196;SDS011;62796;42.654;23.316;2023-02-04T07:54:18;2.03;;;1.50;;
29196;SDS011;62796;42.654;23.316;2023-02-04T07:56:43;10.27;;;2.10;;
29196;SDS011;62796;42.654;23.316;2023-02-04T07:59:09;8.25;;;2.15;;
29196;SDS011;62796;42.654;23.316;2023-02-04T08:01:34;8.27;;;2.20;;
29196;SDS011;62796;42.654;23.316;2023-02-04T08:03:59;4.03;;;2.08;;
29196;SDS011;62796;42.654;23.316;2023-02-04T08:06:25;7.20;;;2.47;;
29196;SDS011;62796;42.654;23.316;2023-02-04T08:08:50;3.60;;;2.50;;
29196;SDS011;62796;42.654;23.316;2023-02-04T08:11:16;6.45;;;2.30;;
29196;SDS011;62796;42.654;23.316;2023-02-04T08:13:41;7.43;;;2.35;;
29196;SDS011;62796;42.654;23.316;2023-02-04T08:16:06;8.57;;;3.08;;
29196;SDS011;62796;42.654;23.316;2023-02-04T08:18:32;8.55;;;2.90;;
29196;SDS011;62796;42.654;23.316;2023-02-04T08:20:57;5.97;;;2.42;;
29196;SDS011;62796;42.654;23.316;2023-02-04T08:23:24;5.18;;;3.15;;
29196;SDS011;62796;42.654;23.316;2023-02-04T08:25:49;6.05;;;2.28;;
29196;SDS011;62796;42.654;23.316;2023-02-04T08:28:15;11.48;;;2.40;;
29196;SDS011;62796;42.654;23.316;2023-02-04T08:30:40;5.70;;;2.75;;
29196;SDS011;62796;42.654;23.316;2023-02-04T08:33:06;5.43;;;2.63;;
29196;SDS011;62796;42.654;23.316;2023-02-04T08:35:31;9.93;;;3.60;;
29196;SDS011;62796;42.654;23.316;2023-02-04T08:37:57;4.25;;;2.40;;
29196;SDS011;62796;42.654;23.316;2023-02-04T08:40:22;4.28;;;2.03;;
29196;SDS011;62796;42.654;23.316;2023-02-04T08:42:47;4.30;;;2.30;;
29196;SDS011;62796;42.654;23.316;2023-02-04T08:45:13;4.95;;;2.47;;
29196;SDS011;62796;42.654;23.316;2023-02-04T08:47:39;5.18;;;2.92;;
29196;SDS011;62796;42.654;23.316;2023-02-04T08:50:04;7.03;;;2.35;;
29196;SDS011;62796;42.654;23.316;2023-02-04T08:52:30;3.20;;;2.00;;
29196;SDS011;62796;42.654;23.316;2023-02-04T08:54:55;6.28;;;2.08;;
29196;SDS011;62796;42.654;23.316;2023-02-04T08:57:21;8.63;;;2.67;;
29196;SDS011;62796;42.654;23.316;2023-02-04T08:59:46;4.00;;;2.58;;
29196;SDS011;62796;42.654;23.316;2023-02-04T09:02:11;4.50;;;1.98;;
29196;SDS011;62796;42.654;23.316;2023-02-04T09:04:37;3.83;;;2.28;;
29196;SDS011;62796;42.654;23.316;2023-02-04T09:07:02;5.70;;;2.40;;
29196;SDS011;62796;42.654;23.316;2023-02-04T09:09:28;9.45;;;3.10;;
29196;SDS011;62796;42.654;23.316;2023-02-04T09:11:53;5.40;;;2.60;;
29196;SDS011;62796;42.654;23.316;2023-02-04T09:14:19;4.00;;;2.00;;
29196;SDS011;62796;42.654;23.316;2023-02-04T09:16:44;5.13;;;2.47;;
29196;SDS011;62796;42.654;23.316;2023-02-04T09:19:10;10.73;;;3.17;;
29196;SDS011;62796;42.654;23.316;2023-02-04T09:21:36;5.75;;;2.92;;
29196;SDS011;62796;42.654;23.316;2023-02-04T09:24:02;6.00;;;2.92;;
29196;SDS011;62796;42.654;23.316;2023-02-04T09:26:28;4.10;;;2.90;;
29196;SDS011;62796;42.654;23.316;2023-02-04T09:28:53;5.80;;;2.03;;
29196;SDS011;62796;42.654;23.316;2023-02-04T09:31:19;4.10;;;2.08;;
29196;SDS011;62796;42.654;23.316;2023-02-04T09:33:44;3.67;;;1.92;;
29196;SDS011;62796;42.654;23.316;2023-02-04T09:36:10;5.47;;;2.83;;
29196;SDS011;62796;42.654;23.316;2023-02-04T09:38:35;4.90;;;2.38;;
29196;SDS011;62796;42.654;23.316;2023-02-04T09:41:01;3.97;;;2.35;;
29196;SDS011;62796;42.654;23.316;2023-02-04T09:43:31;4.72;;;2.22;;
29196;SDS011;62796;42.654;23.316;2023-02-04T09:45:59;4.85;;;2.58;;
29196;SDS011;62796;42.654;23.316;2023-02-04T09:48:27;3.22;;;2.55;;
29196;SDS011;62796;42.654;23.316;2023-02-04T09:50:52;3.03;;;2.08;;
29196;SDS011;62796;42.654;23.316;2023-02-04T09:53:28;2.58;;;2.15;;
29196;SDS011;62796;42.654;23.316;2023-02-04T09:55:55;3.70;;;2.20;;
29196;SDS011;62796;42.654;23.316;2023-02-04T09:58:21;4.72;;;2.65;;
29196;SDS011;62796;42.654;23.316;2023-02-04T10:00:51;4.38;;;3.03;;
29196;SDS011;62796;42.654;23.316;2023-02-04T10:03:23;13.52;;;5.85;;
29196;SDS011;62796;42.654;23.316;2023-02-04T10:05:49;6.40;;;3.10;;
29196;SDS011;62796;42.654;23.316;2023-02-04T10:08:16;9.40;;;3.47;;
29196;SDS011;62796;42.654;23.316;2023-02-04T10:10:44;6.25;;;2.78;;
29196;SDS011;62796;42.654;23.316;2023-02-04T10:13:15;5.93;;;3.13;;
29196;SDS011;62796;42.654;23.316;2023-02-04T10:15:44;2.47;;;2.13;;
29196;SDS011;62796;42.654;23.316;2023-02-04T10:18:13;4.57;;;2.25;;
29196;SDS011;62796;42.654;23.316;2023-02-04T10:20:46;2.63;;;1.80;;
29196;SDS011;62796;42.654;23.316;2023-02-04T10:23:11;3.28;;;2.10;;
29196;SDS011;62796;42.654;23.316;2023-02-04T10:25:37;3.47;;;1.70;;
29196;SDS011;62796;42.654;23.316;2023-02-04T10:28:02;6.28;;;2.45;;
29196;SDS011;62796;42.654;23.316;2023-02-04T10:30:29;5.80;;;2.25;;
29196;SDS011;62796;42.654;23.316;2023-02-04T10:32:59;5.65;;;1.67;;
29196;SDS011;62796;42.654;23.316;2023-02-04T10:35:42;3.03;;;2.00;;
29196;SDS011;62796;42.654;23.316;2023-02-04T10:38:09;3.10;;;1.52;;
29196;SDS011;62796;42.654;23.316;2023-02-04T10:40:35;4.55;;;1.67;;
29196;SDS011;62796;42.654;23.316;2023-02-04T10:43:08;1.60;;;1.25;;
29196;SDS011;62796;42.654;23.316;2023-02-04T10:45:43;2.35;;;1.60;;
29196;SDS011;62796;42.654;23.316;2023-02-04T10:48:17;4.35;;;2.40;;
29196;SDS011;62796;42.654;23.316;2023-02-04T10:50:44;2.35;;;1.50;;
29196;SDS011;62796;42.654;23.316;2023-02-04T10:53:10;2.67;;;1.88;;
29196;SDS011;62796;42.654;23.316;2023-02-04T10:55:57;1.33;;;1.05;;
29196;SDS011;62796;42.654;23.316;2023-02-04T10:58:25;2.85;;;1.95;;
29196;SDS011;62796;42.654;23.316;2023-02-04T11:00:53;3.50;;;2.00;;
29196;SDS011;62796;42.654;23.316;2023-02-04T11:03:21;2.45;;;1.60;;
29196;SDS011;62796;42.654;23.316;2023-02-04T11:05:48;3.33;;;1.85;;
29196;SDS011;62796;42.654;23.316;2023-02-04T11:08:46;3.97;;;2.03;;
29196;SDS011;62796;42.654;23.316;2023-02-04T11:11:13;5.18;;;3.13;;
29196;SDS011;62796;42.654;23.316;2023-02-04T11:13:42;5.90;;;3.85;;
29196;SDS011;62796;42.654;23.316;2023-02-04T11:21:14;3.33;;;2.03;;
29196;SDS011;62796;42.654;23.316;2023-02-04T11:23:45;2.88;;;2.10;;
29196;SDS011;62796;42.654;23.316;2023-02-04T11:26:12;3.85;;;2.15;;
29196;SDS011;62796;42.654;23.316;2023-02-04T11:33:45;2.97;;;2.10;;
29196;SDS011;62796;42.654;23.316;2023-02-04T11:36:13;3.83;;;2.08;;
29196;SDS011;62796;42.654;23.316;2023-02-04T11:38:47;4.38;;;2.70;;
29196;SDS011;62796;42.654;23.316;2023-02-04T11:41:15;3.15;;;2.28;;
29196;SDS011;62796;42.654;23.316;2023-02-04T11:43:50;5.15;;;2.40;;
29196;SDS011;62796;42.654;23.316;2023-02-04T11:46:17;3.75;;;2.38;;
29196;SDS011;62796;42.654;23.316;2023-02-04T11:48:43;3.72;;;2.58;;
29196;SDS011;62796;42.654;23.316;2023-02-04T11:51:13;5.18;;;2.50;;
29196;SDS011;62796;42.654;23.316;2023-02-04T11:53:40;3.25;;;2.20;;
29196;SDS011;62796;42.654;23.316;2023-02-04T11:56:13;3.28;;;2.50;;
29196;SDS011;62796;42.654;23.316;2023-02-04T11:58:40;4.57;;;2.45;;
29196;SDS011;62796;42.654;23.316;2023-02-04T12:01:15;6.55;;;2.63;;
29196;SDS011;62796;42.654;23.316;2023-02-04T12:04:01;3.40;;;2.15;;
29196;SDS011;62796;42.654;23.316;2023-02-04T12:11:58;4.22;;;2.50;;
29196;SDS011;62796;42.654;23.316;2023-02-04T12:14:43;4.65;;;2.90;;
29196;SDS011;62796;42.654;23.316;2023-02-04T12:17:15;3.95;;;2.72;;
29196;SDS011;62796;42.654;23.316;2023-02-04T12:19:42;4.82;;;2.50;;
29196;SDS011;62796;42.654;23.316;2023-02-04T12:22:07;3.00;;;2.60;;
29196;SDS011;62796;42.654;23.316;2023-02-04T12:24:33;4.22;;;2.80;;
29196;SDS011;62796;42.654;23.316;2023-02-04T12:26:59;5.53;;;3.13;;
29196;SDS011;62796;42.654;23.316;2023-02-04T12:29:24;5.60;;;2.80;;
29196;SDS011;62796;42.654;23.316;2023-02-04T12:31:49;4.05;;;2.30;;
29196;SDS011;62796;42.654;23.316;2023-02-04T12:34:15;4.93;;;3.22;;
29196;SDS011;62796;42.654;23.316;2023-02-04T12:36:41;6.65;;;3.53;;
29196;SDS011;62796;42.654;23.316;2023-02-04T12:39:07;7.35;;;3.42;;
29196;SDS011;62796;42.654;23.316;2023-02-04T12:41:34;4.68;;;3.30;;
29196;SDS011;62796;42.654;23.316;2023-02-04T12:44:00;3.85;;;2.25;;
29196;SDS011;62796;42.654;23.316;2023-02-04T12:46:26;5.35;;;3.28;;
29196;SDS011;62796;42.654;23.316;2023-02-04T12:48:52;4.82;;;2.95;;
29196;SDS011;62796;42.654;23.316;2023-02-04T12:51:18;4.32;;;3.20;;
29196;SDS011;62796;42.654;23.316;2023-02-04T12:53:45;3.33;;;2.55;;
29196;SDS011;62796;42.654;23.316;2023-02-04T12:56:11;5.13;;;2.40;;
29196;SDS011;62796;42.654;23.316;2023-02-04T12:58:36;4.07;;;2.20;;
29196;SDS011;62796;42.654;23.316;2023-02-04T13:01:02;3.70;;;2.50;;
29196;SDS011;62796;42.654;23.316;2023-02-04T13:03:27;4.30;;;2.53;;
29196;SDS011;62796;42.654;23.316;2023-02-04T13:05:52;4.07;;;2.75;;
29196;SDS011;62796;42.654;23.316;2023-02-04T13:08:18;2.95;;;1.85;;
29196;SDS011;62796;42.654;23.316;2023-02-04T13:10:44;4.03;;;2.40;;
29196;SDS011;62796;42.654;23.316;2023-02-04T13:13:09;10.80;;;3.80;;
29196;SDS011;62796;42.654;23.316;2023-02-04T13:15:34;3.05;;;2.00;;
29196;SDS011;62796;42.654;23.316;2023-02-04T13:18:00;2.67;;;1.85;;
29196;SDS011;62796;42.654;23.316;2023-02-04T13:20:25;2.90;;;1.50;;
29196;SDS011;62796;42.654;23.316;2023-02-04T13:22:51;2.03;;;1.25;;
29196;SDS011;62796;42.654;23.316;2023-02-04T13:25:16;4.53;;;2.40;;
29196;SDS011;62796;42.654;23.316;2023-02-04T13:27:41;7.03;;;2.78;;
29196;SDS011;62796;42.654;23.316;2023-02-04T13:30:07;4.13;;;2.17;;
29196;SDS011;62796;42.654;23.316;2023-02-04T13:32:35;4.57;;;2.40;;
29196;SDS011;62796;42.654;23.316;2023-02-04T13:35:00;6.93;;;3.10;;
29196;SDS011;62796;42.654;23.316;2023-02-04T13:37:26;7.90;;;3.90;;
29196;SDS011;62796;42.654;23.316;2023-02-04T13:39:51;8.25;;;4.55;;
29196;SDS011;62796;42.654;23.316;2023-02-04T13:42:16;12.50;;;6.60;;
29196;SDS011;62796;42.654;23.316;2023-02-04T13:44:42;9.40;;;4.88;;
29196;SDS011;62796;42.654;23.316;2023-02-04T13:47:08;10.60;;;4.75;;
29196;SDS011;62796;42.654;23.316;2023-02-04T13:49:33;10.68;;;4.65;;
29196;SDS011;62796;42.654;23.316;2023-02-04T13:51:58;4.13;;;2.70;;
29196;SDS011;62796;42.654;23.316;2023-02-04T13:54:24;6.10;;;1.98;;
29196;SDS011;62796;42.654;23.316;2023-02-04T13:56:49;4.30;;;1.90;;
29196;SDS011;62796;42.654;23.316;2023-02-04T13:59:15;9.50;;;4.97;;
29196;SDS011;62796;42.654;23.316;2023-02-04T14:01:40;3.55;;;2.50;;
29196;SDS011;62796;42.654;23.316;2023-02-04T14:04:06;4.22;;;2.65;;
29196;SDS011;62796;42.654;23.316;2023-02-04T14:06:32;4.85;;;2.80;;
29196;SDS011;62796;42.654;23.316;2023-02-04T14:09:01;2.28;;;1.67;;
29196;SDS011;62796;42.654;23.316;2023-02-04T14:11:27;4.82;;;2.63;;
29196;SDS011;62796;42.654;23.316;2023-02-04T14:13:53;5.30;;;2.72;;
29196;SDS011;62796;42.654;23.316;2023-02-04T14:16:19;4.00;;;2.60;;
29196;SDS011;62796;42.654;23.316;2023-02-04T14:18:46;5.97;;;3.50;;
29196;SDS011;62796;42.654;23.316;2023-02-04T14:21:11;7.55;;;3.00;;
29196;SDS011;62796;42.654;23.316;2023-02-04T14:23:37;7.05;;;3.92;;
29196;SDS011;62796;42.654;23.316;2023-02-04T14:26:02;5.15;;;3.33;;
29196;SDS011;62796;42.654;23.316;2023-02-04T14:28:28;6.00;;;3.33;;
29196;SDS011;62796;42.654;23.316;2023-02-04T14:30:53;6.40;;;2.28;;
29196;SDS011;62796;42.654;23.316;2023-02-04T14:33:19;4.85;;;2.70;;
29196;SDS011;62796;42.654;23.316;2023-02-04T14:35:45;2.70;;;2.10;;
29196;SDS011;62796;42.654;23.316;2023-02-04T14:38:10;7.30;;;2.35;;
29196;SDS011;62796;42.654;23.316;2023-02-04T14:40:37;5.03;;;3.08;;
29196;SDS011;62796;42.654;23.316;2023-02-04T14:43:02;3.60;;;2.33;;
29196;SDS011;62796;42.654;23.316;2023-02-04T14:45:28;3.70;;;2.10;;